首页
METAR-TAF:

METAR-TAF

机场 :

劍橋, 英格兰

纬度: 52-12N, 经度: 000-11E, 海拔: 15米

当前天气观测

该预报发布于20分钟前的08:50 UTC
风速9节,风向北转东北
温度 19°C
湿度 64%
气压 1024 hPa
能见度10公里或以上
1500米以下无云,无积雨云

METAR: EGSC 010850Z 03009KT CAVOK 19/12 Q1024

时间: 10:10 (09:10 UTC)


TAF: 丢失

超过4000个机场的气象观测和天气预报(METAR&TAF报告)。

可查询的气象台以黄色和红色小点在地图上表示。

将鼠标移到小点上方,可查看气象台名称。

然后点击查看天气观测和预报。

如需切换地图:点击带黑十字的绿色按钮放大地图;点击带横线的绿色按钮缩小地图;或者点击绿色箭头查看邻近地区的地图。


METAR-TAF: